sensor_id;sensor_type;location;lat;lon;timestamp;temperature;humidity
74511;DHT22;62991;50.040;18.400;2022-12-18T00:01:22;-0.50;60.40
74511;DHT22;62991;50.040;18.400;2022-12-18T00:04:24;-0.50;60.40
74511;DHT22;62991;50.040;18.400;2022-12-18T00:07:25;-0.50;60.40
74511;DHT22;62991;50.040;18.400;2022-12-18T00:10:28;-0.40;60.30
74511;DHT22;62991;50.040;18.400;2022-12-18T00:13:28;-0.40;60.30
74511;DHT22;62991;50.040;18.400;2022-12-18T00:16:29;-0.40;60.30
74511;DHT22;62991;50.040;18.400;2022-12-18T00:19:33;-0.40;60.20
74511;DHT22;62991;50.040;18.400;2022-12-18T00:22:33;-0.30;60.20
74511;DHT22;62991;50.040;18.400;2022-12-18T00:25:35;-0.30;60.20
74511;DHT22;62991;50.040;18.400;2022-12-18T00:28:36;-0.30;60.20
74511;DHT22;62991;50.040;18.400;2022-12-18T00:31:37;-0.30;60.10
74511;DHT22;62991;50.040;18.400;2022-12-18T00:34:38;-0.30;60.10
74511;DHT22;62991;50.040;18.400;2022-12-18T00:37:39;-0.30;60.10
74511;DHT22;62991;50.040;18.400;2022-12-18T00:40:39;-0.20;60.00
74511;DHT22;62991;50.040;18.400;2022-12-18T00:43:40;-0.20;60.00
74511;DHT22;62991;50.040;18.400;2022-12-18T00:46:42;-0.20;60.00
74511;DHT22;62991;50.040;18.400;2022-12-18T00:49:42;-0.20;59.90
74511;DHT22;62991;50.040;18.400;2022-12-18T00:52:43;-0.30;59.90
74511;DHT22;62991;50.040;18.400;2022-12-18T00:55:45;-0.30;60.00
74511;DHT22;62991;50.040;18.400;2022-12-18T00:58:45;-0.30;60.00
74511;DHT22;62991;50.040;18.400;2022-12-18T01:01:46;-0.30;60.00
74511;DHT22;62991;50.040;18.400;2022-12-18T01:04:47;-0.20;60.00
74511;DHT22;62991;50.040;18.400;2022-12-18T01:07:48;-0.20;60.00
74511;DHT22;62991;50.040;18.400;2022-12-18T01:10:48;-0.20;59.90
74511;DHT22;62991;50.040;18.400;2022-12-18T01:13:49;-0.20;59.90
74511;DHT22;62991;50.040;18.400;2022-12-18T01:16:50;-0.20;59.90
74511;DHT22;62991;50.040;18.400;2022-12-18T01:19:50;-0.20;59.90
74511;DHT22;62991;50.040;18.400;2022-12-18T01:22:51;-0.10;59.80
74511;DHT22;62991;50.040;18.400;2022-12-18T01:25:52;-0.10;59.80
74511;DHT22;62991;50.040;18.400;2022-12-18T01:28:54;-0.10;59.80
74511;DHT22;62991;50.040;18.400;2022-12-18T01:31:56;-0.10;59.70
74511;DHT22;62991;50.040;18.400;2022-12-18T01:34:56;-0.10;59.80
74511;DHT22;62991;50.040;18.400;2022-12-18T01:37:57;-0.20;59.70
74511;DHT22;62991;50.040;18.400;2022-12-18T01:40:59;-0.20;59.70
74511;DHT22;62991;50.040;18.400;2022-12-18T01:44:00;-0.20;59.80
74511;DHT22;62991;50.040;18.400;2022-12-18T01:47:00;-0.10;59.70
74511;DHT22;62991;50.040;18.400;2022-12-18T01:50:08;-0.20;59.70
74511;DHT22;62991;50.040;18.400;2022-12-18T01:53:14;-0.10;59.70
74511;DHT22;62991;50.040;18.400;2022-12-18T01:56:17;-0.10;59.70
74511;DHT22;62991;50.040;18.400;2022-12-18T01:59:18;-0.10;59.60
74511;DHT22;62991;50.040;18.400;2022-12-18T02:02:20;-0.10;59.60
74511;DHT22;62991;50.040;18.400;2022-12-18T02:05:46;-0.10;59.60
74511;DHT22;62991;50.040;18.400;2022-12-18T02:09:06;-0.10;59.60
74511;DHT22;62991;50.040;18.400;2022-12-18T02:12:13;-0.10;59.60
74511;DHT22;62991;50.040;18.400;2022-12-18T02:15:31;-0.10;59.50
74511;DHT22;62991;50.040;18.400;2022-12-18T02:18:34;-0.10;59.50
74511;DHT22;62991;50.040;18.400;2022-12-18T02:21:57;-0.10;59.50
74511;DHT22;62991;50.040;18.400;2022-12-18T02:28:19;-0.20;59.40
74511;DHT22;62991;50.040;18.400;2022-12-18T02:31:27;-0.20;59.50
74511;DHT22;62991;50.040;18.400;2022-12-18T02:34:31;-0.30;59.50
74511;DHT22;62991;50.040;18.400;2022-12-18T02:37:34;-0.30;59.50
74511;DHT22;62991;50.040;18.400;2022-12-18T02:40:36;-0.30;59.60
74511;DHT22;62991;50.040;18.400;2022-12-18T02:43:37;-0.30;59.60
74511;DHT22;62991;50.040;18.400;2022-12-18T02:46:41;-0.30;59.60
74511;DHT22;62991;50.040;18.400;2022-12-18T02:50:10;-0.30;59.50
74511;DHT22;62991;50.040;18.400;2022-12-18T02:53:38;-0.20;59.50
74511;DHT22;62991;50.040;18.400;2022-12-18T02:56:48;-0.30;59.50
74511;DHT22;62991;50.040;18.400;2022-12-18T03:00:20;-0.30;59.50
74511;DHT22;62991;50.040;18.400;2022-12-18T03:06:37;-0.30;59.50
74511;DHT22;62991;50.040;18.400;2022-12-18T03:09:44;-0.20;59.50
74511;DHT22;62991;50.040;18.400;2022-12-18T03:12:55;-0.20;59.50
74511;DHT22;62991;50.040;18.400;2022-12-18T03:15:58;-0.30;59.40
74511;DHT22;62991;50.040;18.400;2022-12-18T03:19:10;-0.30;59.40
74511;DHT22;62991;50.040;18.400;2022-12-18T03:22:12;-0.30;59.40
74511;DHT22;62991;50.040;18.400;2022-12-18T03:25:15;-0.30;59.40
74511;DHT22;62991;50.040;18.400;2022-12-18T03:28:21;-0.30;59.40
74511;DHT22;62991;50.040;18.400;2022-12-18T03:31:23;-0.30;59.40
74511;DHT22;62991;50.040;18.400;2022-12-18T03:34:28;-0.20;59.40
74511;DHT22;62991;50.040;18.400;2022-12-18T03:37:31;-0.20;59.30
74511;DHT22;62991;50.040;18.400;2022-12-18T03:40:44;-0.20;59.30
74511;DHT22;62991;50.040;18.400;2022-12-18T03:44:19;-0.20;59.30
74511;DHT22;62991;50.040;18.400;2022-12-18T03:53:58;-0.10;59.10
74511;DHT22;62991;50.040;18.400;2022-12-18T03:57:12;-0.10;59.10
74511;DHT22;62991;50.040;18.400;2022-12-18T04:00:16;-0.10;59.10
74511;DHT22;62991;50.040;18.400;2022-12-18T04:03:19;-0.10;59.10
74511;DHT22;62991;50.040;18.400;2022-12-18T04:06:20;-0.10;59.00
74511;DHT22;62991;50.040;18.400;2022-12-18T04:09:21;-0.10;59.00
74511;DHT22;62991;50.040;18.400;2022-12-18T04:12:27;-0.20;59.10
74511;DHT22;62991;50.040;18.400;2022-12-18T04:15:28;-0.20;59.10
74511;DHT22;62991;50.040;18.400;2022-12-18T04:18:30;-0.20;59.10
74511;DHT22;62991;50.040;18.400;2022-12-18T04:21:30;-0.20;59.00
74511;DHT22;62991;50.040;18.400;2022-12-18T04:24:31;-0.30;59.10
74511;DHT22;62991;50.040;18.400;2022-12-18T04:27:32;-0.30;59.10
74511;DHT22;62991;50.040;18.400;2022-12-18T04:30:32;-0.30;59.10
74511;DHT22;62991;50.040;18.400;2022-12-18T04:33:33;-0.30;59.20
74511;DHT22;62991;50.040;18.400;2022-12-18T04:36:34;-0.30;59.20
74511;DHT22;62991;50.040;18.400;2022-12-18T04:39:34;-0.30;59.20
74511;DHT22;62991;50.040;18.400;2022-12-18T04:42:36;-0.30;59.20
74511;DHT22;62991;50.040;18.400;2022-12-18T04:45:36;-0.30;59.20
74511;DHT22;62991;50.040;18.400;2022-12-18T04:48:37;-0.30;59.20
74511;DHT22;62991;50.040;18.400;2022-12-18T04:51:38;-0.30;59.10
74511;DHT22;62991;50.040;18.400;2022-12-18T04:54:38;-0.30;59.10
74511;DHT22;62991;50.040;18.400;2022-12-18T04:57:39;-0.30;59.10
74511;DHT22;62991;50.040;18.400;2022-12-18T05:00:40;-0.30;59.10
74511;DHT22;62991;50.040;18.400;2022-12-18T05:03:40;-0.30;59.00
74511;DHT22;62991;50.040;18.400;2022-12-18T05:06:41;-0.20;59.00
74511;DHT22;62991;50.040;18.400;2022-12-18T05:09:42;-0.30;59.00
74511;DHT22;62991;50.040;18.400;2022-12-18T05:12:42;-0.30;59.00
74511;DHT22;62991;50.040;18.400;2022-12-18T05:15:58;-0.30;59.00
74511;DHT22;62991;50.040;18.400;2022-12-18T05:18:59;-0.30;58.90
74511;DHT22;62991;50.040;18.400;2022-12-18T05:21:59;-0.30;58.90
74511;DHT22;62991;50.040;18.400;2022-12-18T05:25:01;-0.30;58.90
74511;DHT22;62991;50.040;18.400;2022-12-18T05:28:02;-0.20;58.90
74511;DHT22;62991;50.040;18.400;2022-12-18T05:31:04;-0.20;58.90
74511;DHT22;62991;50.040;18.400;2022-12-18T05:34:05;-0.20;58.90
74511;DHT22;62991;50.040;18.400;2022-12-18T05:37:06;-0.20;58.80
74511;DHT22;62991;50.040;18.400;2022-12-18T05:40:07;-0.20;58.80
74511;DHT22;62991;50.040;18.400;2022-12-18T05:43:07;-0.20;58.80
74511;DHT22;62991;50.040;18.400;2022-12-18T05:46:13;-0.20;58.80
74511;DHT22;62991;50.040;18.400;2022-12-18T05:49:14;-0.20;58.80
74511;DHT22;62991;50.040;18.400;2022-12-18T05:52:14;-0.20;58.70
74511;DHT22;62991;50.040;18.400;2022-12-18T05:55:15;-0.20;58.70
74511;DHT22;62991;50.040;18.400;2022-12-18T05:58:16;-0.20;58.70
74511;DHT22;62991;50.040;18.400;2022-12-18T06:01:19;-0.20;58.70
74511;DHT22;62991;50.040;18.400;2022-12-18T06:04:21;-0.20;58.70
74511;DHT22;62991;50.040;18.400;2022-12-18T06:07:21;-0.30;58.70
74511;DHT22;62991;50.040;18.400;2022-12-18T06:10:22;-0.30;58.70
74511;DHT22;62991;50.040;18.400;2022-12-18T06:13:22;-0.30;58.70
74511;DHT22;62991;50.040;18.400;2022-12-18T06:16:23;-0.30;58.70
74511;DHT22;62991;50.040;18.400;2022-12-18T06:19:24;-0.30;58.70
74511;DHT22;62991;50.040;18.400;2022-12-18T06:22:25;-0.30;58.70
74511;DHT22;62991;50.040;18.400;2022-12-18T06:25:25;-0.30;58.70
74511;DHT22;62991;50.040;18.400;2022-12-18T06:28:26;-0.30;58.70
74511;DHT22;62991;50.040;18.400;2022-12-18T06:31:27;-0.30;58.70
74511;DHT22;62991;50.040;18.400;2022-12-18T06:34:27;-0.20;58.60
74511;DHT22;62991;50.040;18.400;2022-12-18T06:37:28;-0.20;58.60
74511;DHT22;62991;50.040;18.400;2022-12-18T06:40:30;-0.20;58.60
74511;DHT22;62991;50.040;18.400;2022-12-18T06:43:31;-0.20;58.60
74511;DHT22;62991;50.040;18.400;2022-12-18T06:46:32;-0.20;58.60
74511;DHT22;62991;50.040;18.400;2022-12-18T06:49:32;-0.20;58.50
74511;DHT22;62991;50.040;18.400;2022-12-18T06:52:33;-0.20;58.50
74511;DHT22;62991;50.040;18.400;2022-12-18T06:55:34;-0.10;58.50
74511;DHT22;62991;50.040;18.400;2022-12-18T06:58:34;-0.10;58.40
74511;DHT22;62991;50.040;18.400;2022-12-18T07:01:35;-0.10;58.50
74511;DHT22;62991;50.040;18.400;2022-12-18T07:04:36;-0.20;58.50
74511;DHT22;62991;50.040;18.400;2022-12-18T07:07:36;-0.10;58.40
74511;DHT22;62991;50.040;18.400;2022-12-18T07:10:41;-0.10;58.50
74511;DHT22;62991;50.040;18.400;2022-12-18T07:13:43;-0.10;58.40
74511;DHT22;62991;50.040;18.400;2022-12-18T07:16:43;-0.10;58.40
74511;DHT22;62991;50.040;18.400;2022-12-18T07:19:44;-0.10;58.40
74511;DHT22;62991;50.040;18.400;2022-12-18T07:22:45;-0.10;58.30
74511;DHT22;62991;50.040;18.400;2022-12-18T07:25:46;-0.10;58.30
74511;DHT22;62991;50.040;18.400;2022-12-18T07:28:46;-0.10;58.30
74511;DHT22;62991;50.040;18.400;2022-12-18T07:31:47;0.00;58.30
74511;DHT22;62991;50.040;18.400;2022-12-18T07:34:48;-0.10;58.30
74511;DHT22;62991;50.040;18.400;2022-12-18T07:37:49;0.00;58.30
74511;DHT22;62991;50.040;18.400;2022-12-18T07:40:49;0.00;58.30
74511;DHT22;62991;50.040;18.400;2022-12-18T07:43:50;0.00;58.30
74511;DHT22;62991;50.040;18.400;2022-12-18T07:46:50;0.00;58.20
74511;DHT22;62991;50.040;18.400;2022-12-18T07:49:51;0.00;58.20
74511;DHT22;62991;50.040;18.400;2022-12-18T07:52:52;0.00;58.20
74511;DHT22;62991;50.040;18.400;2022-12-18T07:56:07;0.00;58.30
74511;DHT22;62991;50.040;18.400;2022-12-18T07:59:08;0.00;58.30
74511;DHT22;62991;50.040;18.400;2022-12-18T08:02:09;0.00;58.20
74511;DHT22;62991;50.040;18.400;2022-12-18T08:05:10;0.00;58.20
74511;DHT22;62991;50.040;18.400;2022-12-18T08:08:11;0.00;58.20
74511;DHT22;62991;50.040;18.400;2022-12-18T08:11:11;0.10;58.10
74511;DHT22;62991;50.040;18.400;2022-12-18T08:14:12;0.10;58.10
74511;DHT22;62991;50.040;18.400;2022-12-18T08:17:13;0.10;58.00
74511;DHT22;62991;50.040;18.400;2022-12-18T08:20:13;0.10;58.00
74511;DHT22;62991;50.040;18.400;2022-12-18T08:23:15;0.00;57.90
74511;DHT22;62991;50.040;18.400;2022-12-18T08:26:16;0.00;58.10
74511;DHT22;62991;50.040;18.400;2022-12-18T08:29:16;0.00;58.10
74511;DHT22;62991;50.040;18.400;2022-12-18T08:32:17;0.00;58.10
74511;DHT22;62991;50.040;18.400;2022-12-18T08:35:18;0.00;58.00
74511;DHT22;62991;50.040;18.400;2022-12-18T08:38:19;0.00;58.00
74511;DHT22;62991;50.040;18.400;2022-12-18T08:41:20;0.00;58.00
74511;DHT22;62991;50.040;18.400;2022-12-18T08:44:21;0.00;57.90
74511;DHT22;62991;50.040;18.400;2022-12-18T08:47:40;0.00;58.00
74511;DHT22;62991;50.040;18.400;2022-12-18T08:50:40;0.00;58.00
74511;DHT22;62991;50.040;18.400;2022-12-18T08:53:42;0.00;57.90
74511;DHT22;62991;50.040;18.400;2022-12-18T08:56:42;0.10;57.90
74511;DHT22;62991;50.040;18.400;2022-12-18T08:59:43;0.10;57.80
74511;DHT22;62991;50.040;18.400;2022-12-18T09:02:44;0.10;57.80
74511;DHT22;62991;50.040;18.400;2022-12-18T09:05:48;0.20;57.80
74511;DHT22;62991;50.040;18.400;2022-12-18T09:08:49;0.20;57.80
74511;DHT22;62991;50.040;18.400;2022-12-18T09:11:49;0.20;57.70
74511;DHT22;62991;50.040;18.400;2022-12-18T09:14:50;0.20;57.70
74511;DHT22;62991;50.040;18.400;2022-12-18T09:17:51;0.20;57.70
74511;DHT22;62991;50.040;18.400;2022-12-18T09:20:53;0.20;57.70
74511;DHT22;62991;50.040;18.400;2022-12-18T09:23:55;0.20;57.70
74511;DHT22;62991;50.040;18.400;2022-12-18T09:26:55;0.20;57.70
74511;DHT22;62991;50.040;18.400;2022-12-18T09:29:56;0.20;57.70
74511;DHT22;62991;50.040;18.400;2022-12-18T09:32:57;0.30;57.70
74511;DHT22;62991;50.040;18.400;2022-12-18T09:35:57;0.30;57.60
74511;DHT22;62991;50.040;18.400;2022-12-18T09:39:01;0.40;57.50
74511;DHT22;62991;50.040;18.400;2022-12-18T09:42:01;0.40;57.50
74511;DHT22;62991;50.040;18.400;2022-12-18T09:45:03;0.40;57.50
74511;DHT22;62991;50.040;18.400;2022-12-18T09:48:04;0.40;57.50
74511;DHT22;62991;50.040;18.400;2022-12-18T09:51:17;0.40;57.40
74511;DHT22;62991;50.040;18.400;2022-12-18T09:54:26;0.30;57.30
74511;DHT22;62991;50.040;18.400;2022-12-18T09:57:33;0.30;57.40
74511;DHT22;62991;50.040;18.400;2022-12-18T10:00:37;0.30;57.50
74511;DHT22;62991;50.040;18.400;2022-12-18T10:03:38;0.40;57.50
74511;DHT22;62991;50.040;18.400;2022-12-18T10:06:55;0.40;57.40
74511;DHT22;62991;50.040;18.400;2022-12-18T10:20:38;0.70;57.20
74511;DHT22;62991;50.040;18.400;2022-12-18T10:23:47;0.70;57.10
74511;DHT22;62991;50.040;18.400;2022-12-18T10:27:06;0.80;57.10
74511;DHT22;62991;50.040;18.400;2022-12-18T10:30:17;0.80;57.00
74511;DHT22;62991;50.040;18.400;2022-12-18T10:33:21;0.90;57.00
74511;DHT22;62991;50.040;18.400;2022-12-18T10:36:23;0.90;57.00
74511;DHT22;62991;50.040;18.400;2022-12-18T10:39:25;1.00;57.00
74511;DHT22;62991;50.040;18.400;2022-12-18T10:42:26;1.00;56.90
74511;DHT22;62991;50.040;18.400;2022-12-18T10:45:27;1.00;56.90
74511;DHT22;62991;50.040;18.400;2022-12-18T10:48:30;1.10;56.90
74511;DHT22;62991;50.040;18.400;2022-12-18T10:51:33;1.10;56.90
74511;DHT22;62991;50.040;18.400;2022-12-18T10:54:35;1.20;56.80
74511;DHT22;62991;50.040;18.400;2022-12-18T10:57:40;1.20;56.80
74511;DHT22;62991;50.040;18.400;2022-12-18T11:00:41;1.30;56.70
74511;DHT22;62991;50.040;18.400;2022-12-18T11:03:47;1.40;56.70
74511;DHT22;62991;50.040;18.400;2022-12-18T11:10:01;1.40;56.50
74511;DHT22;62991;50.040;18.400;2022-12-18T11:13:25;1.50;56.60
74511;DHT22;62991;50.040;18.400;2022-12-18T11:16:28;1.70;56.60
74511;DHT22;62991;50.040;18.400;2022-12-18T11:19:39;1.90;56.70
74511;DHT22;62991;50.040;18.400;2022-12-18T11:22:41;2.10;56.80
74511;DHT22;62991;50.040;18.400;2022-12-18T11:26:01;2.50;57.00
74511;DHT22;62991;50.040;18.400;2022-12-18T11:29:15;3.00;56.90
74511;DHT22;62991;50.040;18.400;2022-12-18T11:32:41;3.60;56.90
74511;DHT22;62991;50.040;18.400;2022-12-18T11:35:56;4.30;56.50
74511;DHT22;62991;50.040;18.400;2022-12-18T11:39:02;5.00;56.30
74511;DHT22;62991;50.040;18.400;2022-12-18T11:42:16;5.60;56.00
74511;DHT22;62991;50.040;18.400;2022-12-18T11:45:26;6.30;55.50
74511;DHT22;62991;50.040;18.400;2022-12-18T11:48:32;6.90;55.00
74511;DHT22;62991;50.040;18.400;2022-12-18T11:52:01;7.40;54.60
74511;DHT22;62991;50.040;18.400;2022-12-18T11:55:31;8.00;54.10
74511;DHT22;62991;50.040;18.400;2022-12-18T11:58:45;8.50;53.60
74511;DHT22;62991;50.040;18.400;2022-12-18T12:01:53;9.00;53.30
74511;DHT22;62991;50.040;18.400;2022-12-18T12:05:10;9.30;52.80
74511;DHT22;62991;50.040;18.400;2022-12-18T12:08:45;9.70;52.40
74511;DHT22;62991;50.040;18.400;2022-12-18T12:11:56;10.00;52.00
74511;DHT22;62991;50.040;18.400;2022-12-18T12:15:13;10.30;51.80
74511;DHT22;62991;50.040;18.400;2022-12-18T12:18:46;10.60;51.40
74511;DHT22;62991;50.040;18.400;2022-12-18T12:25:31;11.20;50.60
74511;DHT22;62991;50.040;18.400;2022-12-18T12:38:57;11.90;49.10
74511;DHT22;62991;50.040;18.400;2022-12-18T12:42:01;12.00;49.20
74511;DHT22;62991;50.040;18.400;2022-12-18T12:49:00;12.30;48.40
74511;DHT22;62991;50.040;18.400;2022-12-18T12:52:10;12.40;48.40
74511;DHT22;62991;50.040;18.400;2022-12-18T12:55:14;12.50;48.10
74511;DHT22;62991;50.040;18.400;2022-12-18T13:02:06;12.60;47.70
74511;DHT22;62991;50.040;18.400;2022-12-18T13:05:26;12.40;47.60
74511;DHT22;62991;50.040;18.400;2022-12-18T13:08:50;12.30;47.20
74511;DHT22;62991;50.040;18.400;2022-12-18T13:11:51;12.00;47.00
74511;DHT22;62991;50.040;18.400;2022-12-18T13:15:21;11.60;46.90
74511;DHT22;62991;50.040;18.400;2022-12-18T13:18:24;11.20;46.80
74511;DHT22;62991;50.040;18.400;2022-12-18T13:21:28;10.90;46.80
74511;DHT22;62991;50.040;18.400;2022-12-18T13:24:30;10.50;46.80
74511;DHT22;62991;50.040;18.400;2022-12-18T13:30:56;9.60;46.70
74511;DHT22;62991;50.040;18.400;2022-12-18T13:34:20;9.30;46.80
74511;DHT22;62991;50.040;18.400;2022-12-18T13:37:39;8.90;46.80
74511;DHT22;62991;50.040;18.400;2022-12-18T13:43:42;8.30;47.10
74511;DHT22;62991;50.040;18.400;2022-12-18T13:46:47;8.10;47.10
74511;DHT22;62991;50.040;18.400;2022-12-18T13:49:49;7.90;47.10
74511;DHT22;62991;50.040;18.400;2022-12-18T13:52:51;7.70;47.10
74511;DHT22;62991;50.040;18.400;2022-12-18T13:55:52;7.50;47.10
74511;DHT22;62991;50.040;18.400;2022-12-18T14:02:17;7.10;47.10
74511;DHT22;62991;50.040;18.400;2022-12-18T14:05:44;6.90;47.10
74511;DHT22;62991;50.040;18.400;2022-12-18T14:08:46;6.70;47.10
74511;DHT22;62991;50.040;18.400;2022-12-18T14:11:49;6.60;47.20
74511;DHT22;62991;50.040;18.400;2022-12-18T14:14:51;6.50;47.30
74511;DHT22;62991;50.040;18.400;2022-12-18T14:20:59;6.20;47.30
74511;DHT22;62991;50.040;18.400;2022-12-18T14:27:22;5.80;47.30
74511;DHT22;62991;50.040;18.400;2022-12-18T14:30:26;5.60;47.40
74511;DHT22;62991;50.040;18.400;2022-12-18T14:33:27;5.40;47.40
74511;DHT22;62991;50.040;18.400;2022-12-18T14:36:28;5.20;47.50
74511;DHT22;62991;50.040;18.400;2022-12-18T14:39:29;4.90;47.60
74511;DHT22;62991;50.040;18.400;2022-12-18T14:42:30;4.70;47.70
74511;DHT22;62991;50.040;18.400;2022-12-18T14:45:38;4.40;47.80
74511;DHT22;62991;50.040;18.400;2022-12-18T14:48:41;4.20;47.90
74511;DHT22;62991;50.040;18.400;2022-12-18T14:51:54;4.00;48.00
74511;DHT22;62991;50.040;18.400;2022-12-18T14:54:55;3.80;48.10
74511;DHT22;62991;50.040;18.400;2022-12-18T14:57:56;3.60;48.20
74511;DHT22;62991;50.040;18.400;2022-12-18T15:00:57;3.40;48.30
74511;DHT22;62991;50.040;18.400;2022-12-18T15:03:59;3.30;48.40
74511;DHT22;62991;50.040;18.400;2022-12-18T15:07:18;3.10;48.50
74511;DHT22;62991;50.040;18.400;2022-12-18T15:10:22;3.00;48.60
74511;DHT22;62991;50.040;18.400;2022-12-18T15:13:24;2.90;48.60
74511;DHT22;62991;50.040;18.400;2022-12-18T15:16:25;2.70;48.60
74511;DHT22;62991;50.040;18.400;2022-12-18T15:19:39;2.60;48.70
74511;DHT22;62991;50.040;18.400;2022-12-18T15:22:41;2.50;48.70
74511;DHT22;62991;50.040;18.400;2022-12-18T15:25:42;2.40;48.80
74511;DHT22;62991;50.040;18.400;2022-12-18T15:28:53;2.30;48.90
74511;DHT22;62991;50.040;18.400;2022-12-18T15:32:04;2.10;48.90
74511;DHT22;62991;50.040;18.400;2022-12-18T15:38:11;1.90;49.10
74511;DHT22;62991;50.040;18.400;2022-12-18T15:41:17;1.80;49.10
74511;DHT22;62991;50.040;18.400;2022-12-18T15:44:24;1.70;49.10
74511;DHT22;62991;50.040;18.400;2022-12-18T15:47:25;1.60;49.20
74511;DHT22;62991;50.040;18.400;2022-12-18T15:50:26;1.50;49.30
74511;DHT22;62991;50.040;18.400;2022-12-18T15:53:33;1.40;49.30
74511;DHT22;62991;50.040;18.400;2022-12-18T15:56:34;1.30;49.40
74511;DHT22;62991;50.040;18.400;2022-12-18T15:59:55;1.20;49.50
74511;DHT22;62991;50.040;18.400;2022-12-18T16:02:58;1.20;49.50
74511;DHT22;62991;50.040;18.400;2022-12-18T16:05:59;1.10;49.50
74511;DHT22;62991;50.040;18.400;2022-12-18T16:09:02;1.10;49.60
74511;DHT22;62991;50.040;18.400;2022-12-18T16:12:03;1.00;49.60
74511;DHT22;62991;50.040;18.400;2022-12-18T16:15:05;0.90;49.70
74511;DHT22;62991;50.040;18.400;2022-12-18T16:18:06;0.90;49.70
74511;DHT22;62991;50.040;18.400;2022-12-18T16:21:07;0.90;49.80
74511;DHT22;62991;50.040;18.400;2022-12-18T16:24:17;0.80;49.70
74511;DHT22;62991;50.040;18.400;2022-12-18T16:27:18;0.80;49.80
74511;DHT22;62991;50.040;18.400;2022-12-18T16:30:24;0.80;49.80
74511;DHT22;62991;50.040;18.400;2022-12-18T16:33:26;0.80;49.90
74511;DHT22;62991;50.040;18.400;2022-12-18T16:36:27;0.70;49.90
74511;DHT22;62991;50.040;18.400;2022-12-18T16:39:28;0.70;50.00
74511;DHT22;62991;50.040;18.400;2022-12-18T16:42:30;0.70;50.00
74511;DHT22;62991;50.040;18.400;2022-12-18T16:45:32;0.60;50.00
74511;DHT22;62991;50.040;18.400;2022-12-18T16:48:33;0.60;50.00
74511;DHT22;62991;50.040;18.400;2022-12-18T16:51:34;0.60;50.00
74511;DHT22;62991;50.040;18.400;2022-12-18T16:54:35;0.60;50.00
74511;DHT22;62991;50.040;18.400;2022-12-18T16:57:36;0.60;50.00
74511;DHT22;62991;50.040;18.400;2022-12-18T17:00:37;0.60;50.00
74511;DHT22;62991;50.040;18.400;2022-12-18T17:03:38;0.60;50.10
74511;DHT22;62991;50.040;18.400;2022-12-18T17:06:44;0.60;50.10
74511;DHT22;62991;50.040;18.400;2022-12-18T17:09:45;0.50;50.10
74511;DHT22;62991;50.040;18.400;2022-12-18T17:12:45;0.60;50.20
74511;DHT22;62991;50.040;18.400;2022-12-18T17:15:46;0.50;50.20
74511;DHT22;62991;50.040;18.400;2022-12-18T17:18:47;0.50;50.30
74511;DHT22;62991;50.040;18.400;2022-12-18T17:21:49;0.50;50.30
74511;DHT22;62991;50.040;18.400;2022-12-18T17:24:50;0.50;50.30
74511;DHT22;62991;50.040;18.400;2022-12-18T17:27:51;0.50;50.30
74511;DHT22;62991;50.040;18.400;2022-12-18T17:30:52;0.40;50.30
74511;DHT22;62991;50.040;18.400;2022-12-18T17:33:53;0.30;50.40
74511;DHT22;62991;50.040;18.400;2022-12-18T17:36:54;0.30;50.50
74511;DHT22;62991;50.040;18.400;2022-12-18T17:39:55;0.20;50.50
74511;DHT22;62991;50.040;18.400;2022-12-18T17:42:55;0.20;50.50
74511;DHT22;62991;50.040;18.400;2022-12-18T17:46:01;0.10;50.50
74511;DHT22;62991;50.040;18.400;2022-12-18T17:49:02;0.10;50.60
74511;DHT22;62991;50.040;18.400;2022-12-18T17:52:03;0.10;50.60
74511;DHT22;62991;50.040;18.400;2022-12-18T17:55:04;0.00;50.70
74511;DHT22;62991;50.040;18.400;2022-12-18T17:58:06;0.00;50.70
74511;DHT22;62991;50.040;18.400;2022-12-18T18:01:07;-0.10;50.80
74511;DHT22;62991;50.040;18.400;2022-12-18T18:04:08;-0.10;50.80
74511;DHT22;62991;50.040;18.400;2022-12-18T18:07:09;-0.10;50.90
74511;DHT22;62991;50.040;18.400;2022-12-18T18:10:10;-0.10;50.90
74511;DHT22;62991;50.040;18.400;2022-12-18T18:13:18;-0.10;50.90
74511;DHT22;62991;50.040;18.400;2022-12-18T18:16:41;-0.20;50.90
74511;DHT22;62991;50.040;18.400;2022-12-18T18:19:42;-0.20;50.90
74511;DHT22;62991;50.040;18.400;2022-12-18T18:22:43;-0.20;50.90
74511;DHT22;62991;50.040;18.400;2022-12-18T18:25:44;-0.20;51.00
74511;DHT22;62991;50.040;18.400;2022-12-18T18:28:44;-0.20;51.00
74511;DHT22;62991;50.040;18.400;2022-12-18T18:31:45;-0.30;51.00
74511;DHT22;62991;50.040;18.400;2022-12-18T18:34:46;-0.30;51.00
74511;DHT22;62991;50.040;18.400;2022-12-18T18:37:49;-0.30;51.10
74511;DHT22;62991;50.040;18.400;2022-12-18T18:41:03;-0.40;51.10
74511;DHT22;62991;50.040;18.400;2022-12-18T18:44:04;-0.40;51.10
74511;DHT22;62991;50.040;18.400;2022-12-18T18:47:05;-0.40;51.20
74511;DHT22;62991;50.040;18.400;2022-12-18T18:50:07;-0.50;51.20
74511;DHT22;62991;50.040;18.400;2022-12-18T18:53:08;-0.50;51.20
74511;DHT22;62991;50.040;18.400;2022-12-18T18:56:11;-0.60;51.20
74511;DHT22;62991;50.040;18.400;2022-12-18T18:59:11;-0.60;51.30
74511;DHT22;62991;50.040;18.400;2022-12-18T19:02:14;-0.60;51.30
74511;DHT22;62991;50.040;18.400;2022-12-18T19:05:15;-0.60;51.30
74511;DHT22;62991;50.040;18.400;2022-12-18T19:08:16;-0.60;51.30
74511;DHT22;62991;50.040;18.400;2022-12-18T19:11:16;-0.60;51.40
74511;DHT22;62991;50.040;18.400;2022-12-18T19:14:36;-0.60;51.40
74511;DHT22;62991;50.040;18.400;2022-12-18T19:17:36;-0.60;51.40
74511;DHT22;62991;50.040;18.400;2022-12-18T19:20:37;-0.60;51.30
74511;DHT22;62991;50.040;18.400;2022-12-18T19:23:38;-0.60;51.30
74511;DHT22;62991;50.040;18.400;2022-12-18T19:26:38;-0.70;51.20
74511;DHT22;62991;50.040;18.400;2022-12-18T19:29:39;-0.70;51.20
74511;DHT22;62991;50.040;18.400;2022-12-18T19:32:40;-0.80;51.20
74511;DHT22;62991;50.040;18.400;2022-12-18T19:35:41;-0.90;51.30
74511;DHT22;62991;50.040;18.400;2022-12-18T19:38:41;-0.90;51.40
74511;DHT22;62991;50.040;18.400;2022-12-18T19:41:43;-0.90;51.50
74511;DHT22;62991;50.040;18.400;2022-12-18T19:44:44;-0.90;51.40
74511;DHT22;62991;50.040;18.400;2022-12-18T19:47:45;-1.00;51.50
74511;DHT22;62991;50.040;18.400;2022-12-18T19:50:45;-1.00;51.40
74511;DHT22;62991;50.040;18.400;2022-12-18T19:53:46;-1.00;51.50
74511;DHT22;62991;50.040;18.400;2022-12-18T19:56:47;-1.10;51.50
74511;DHT22;62991;50.040;18.400;2022-12-18T19:59:47;-1.10;51.50
74511;DHT22;62991;50.040;18.400;2022-12-18T20:02:48;-1.10;51.50
74511;DHT22;62991;50.040;18.400;2022-12-18T20:05:49;-1.20;51.50
74511;DHT22;62991;50.040;18.400;2022-12-18T20:08:50;-1.20;51.50
74511;DHT22;62991;50.040;18.400;2022-12-18T20:11:51;-1.20;51.50
74511;DHT22;62991;50.040;18.400;2022-12-18T20:14:52;-1.30;51.50
74511;DHT22;62991;50.040;18.400;2022-12-18T20:17:53;-1.30;51.50
74511;DHT22;62991;50.040;18.400;2022-12-18T20:20:53;-1.30;51.50